< < Back
Terminal Aerodrome Forecast


Current Version              Previous Versions:   1  2  3  4  5  6  7  8  9  

Terminal Aerodrome Forecast

410
FTUS44 KMOB 311700
TAFMOB
TAF
KMOB 311737Z 3118/0118 26008G16KT P6SM FEW030
     FM312100 32013G20KT P6SM SCT030
     FM010300 34016G25KT P6SM SCT030=



Latest METAR

950
SAUS80 KWBC 010700 RRK
MTRMOB
METAR KMOB 010656Z AUTO 35016G24KT 10SM CLR 09/01 A3018 RMK AO2 PK WND
35026/0646 SLP219 T00940006


USA.gov is the U.S. government's official web portal to all federal, state and local government web resources and services.